createdAt,value
2019-05-16T00:02:10.131Z,6.73
2019-05-16T00:04:59.233Z,6.74
2019-05-16T00:07:49.585Z,6.77
2019-05-16T00:10:38.490Z,6.75
2019-05-16T00:16:38.027Z,6.87
2019-05-16T00:19:28.758Z,6.90
2019-05-16T00:22:18.271Z,6.90
2019-05-16T00:25:09.373Z,6.94
2019-05-16T00:27:58.798Z,6.98
2019-05-16T00:30:48.882Z,7.06
2019-05-16T00:33:38.068Z,7.03
2019-05-16T00:36:28.360Z,7.09
2019-05-16T00:39:18.771Z,7.10
2019-05-16T00:42:08.844Z,6.99
2019-05-16T00:44:58.595Z,6.93
2019-05-16T00:47:48.972Z,6.79
2019-05-16T00:50:58.699Z,6.74
2019-05-16T00:53:48.296Z,6.66
2019-05-16T01:03:00.575Z,6.50
2019-05-16T01:05:49.393Z,6.48
2019-05-16T01:08:38.645Z,6.44
2019-05-16T01:11:28.781Z,6.40
2019-05-16T01:14:17.774Z,6.42
2019-05-16T01:17:08.573Z,6.53
2019-05-16T01:19:57.833Z,6.60
2019-05-16T01:22:48.995Z,6.66
2019-05-16T01:25:38.871Z,6.71
2019-05-16T01:28:28.863Z,6.81
2019-05-16T01:31:19.090Z,6.86
2019-05-16T01:34:08.273Z,6.98
2019-05-16T01:36:59.006Z,7.07
2019-05-16T01:39:48.404Z,7.09
2019-05-16T01:42:38.538Z,7.06
2019-05-16T01:45:28.817Z,7.05
2019-05-16T01:48:19.170Z,7.08
2019-05-16T01:51:08.232Z,7.08
2019-05-16T01:53:58.004Z,7.11
2019-05-16T01:56:48.098Z,7.17
2019-05-16T01:59:38.215Z,7.24
2019-05-16T02:02:28.961Z,7.29
2019-05-16T02:05:18.754Z,7.40
2019-05-16T02:08:08.845Z,7.41
2019-05-16T02:10:58.862Z,7.49
2019-05-16T02:13:48.474Z,7.67
2019-05-16T02:16:38.500Z,7.77
2019-05-16T02:19:27.984Z,7.90
2019-05-16T02:22:18.035Z,8.20
2019-05-16T02:28:25.931Z,8.28
2019-05-16T02:31:15.305Z,8.48
2019-05-16T02:34:04.946Z,8.45
2019-05-16T02:37:12.036Z,8.41
2019-05-16T02:39:44.406Z,8.41
2019-05-16T02:42:33.235Z,8.35
2019-05-16T02:45:24.486Z,8.42
2019-05-16T02:48:12.683Z,8.36
2019-05-16T02:51:02.078Z,8.39
2019-05-16T02:53:52.274Z,8.55
2019-05-16T02:56:41.913Z,8.65
2019-05-16T02:59:31.663Z,8.74
2019-05-16T03:02:20.799Z,8.77
2019-05-16T03:08:41.189Z,8.95
2019-05-16T03:11:31.462Z,8.94
2019-05-16T03:14:21.428Z,8.93
2019-05-16T03:20:46.249Z,8.87
2019-05-16T03:23:35.106Z,8.99
2019-05-16T03:26:23.989Z,8.98
2019-05-16T03:29:12.846Z,8.95
2019-05-16T03:32:03.108Z,9.08
2019-05-16T03:34:54.792Z,9.26
2019-05-16T03:37:54.960Z,9.19
2019-05-16T03:43:50.752Z,9.17
2019-05-16T03:46:41.336Z,9.26
2019-05-16T03:49:31.342Z,9.24
2019-05-16T03:52:20.740Z,9.29
2019-05-16T03:55:11.534Z,9.14
2019-05-16T03:58:01.649Z,9.27
2019-05-16T04:01:12.703Z,9.07
2019-05-16T04:03:54.162Z,9.10
2019-05-16T04:06:42.960Z,9.23
2019-05-16T04:09:31.803Z,9.30
2019-05-16T04:12:21.356Z,9.22
2019-05-16T04:15:11.818Z,9.28
2019-05-16T04:18:01.827Z,9.25
2019-05-16T04:20:52.427Z,9.26
2019-05-16T04:23:41.998Z,9.19
2019-05-16T04:26:35.781Z,9.28
2019-05-16T04:29:22.397Z,9.41
2019-05-16T04:32:11.232Z,9.47
2019-05-16T04:35:02.535Z,9.51
2019-05-16T04:37:51.454Z,9.53
2019-05-16T04:40:42.400Z,9.75
2019-05-16T04:43:31.927Z,9.75
2019-05-16T04:46:21.641Z,9.90
2019-05-16T04:49:11.573Z,9.95
2019-05-16T04:52:01.936Z,10.04
2019-05-16T04:54:51.318Z,10.09
2019-05-16T04:57:42.453Z,10.20
2019-05-16T05:00:32.116Z,10.29
2019-05-16T05:06:31.275Z,10.39
2019-05-16T05:09:20.964Z,10.59
2019-05-16T05:12:11.406Z,10.87
2019-05-16T05:15:01.224Z,11.42
2019-05-16T05:17:51.293Z,11.53
2019-05-16T05:20:41.064Z,11.78
2019-05-16T05:23:30.693Z,11.80
2019-05-16T05:26:19.975Z,11.96
2019-05-16T05:29:10.380Z,12.18
2019-05-16T05:32:04.198Z,12.18
2019-05-16T05:34:51.324Z,11.97
2019-05-16T05:37:41.060Z,11.85
2019-05-16T05:40:30.787Z,11.84
2019-05-16T05:43:21.539Z,11.86
2019-05-16T05:46:11.154Z,11.75
2019-05-16T05:49:00.917Z,12.01
2019-05-16T05:51:50.122Z,11.77
2019-05-16T05:54:40.841Z,11.87
2019-05-16T05:57:30.892Z,12.14
2019-05-16T06:03:34.353Z,12.79
2019-05-16T06:06:23.179Z,12.47
2019-05-16T06:09:25.317Z,12.30
2019-05-16T06:18:32.013Z,12.45
2019-05-16T06:21:20.839Z,12.15
2019-05-16T06:24:10.792Z,12.19
2019-05-16T06:27:00.962Z,12.21
2019-05-16T06:29:50.929Z,12.64
2019-05-16T06:36:10.819Z,13.01
2019-05-16T06:39:00.237Z,12.82
2019-05-16T06:41:50.936Z,12.81
2019-05-16T06:44:40.251Z,12.69
2019-05-16T06:47:30.619Z,12.60
2019-05-16T06:50:40.447Z,12.50
2019-05-16T06:53:29.911Z,12.40
2019-05-16T06:56:20.204Z,12.45
2019-05-16T06:59:10.564Z,12.47
2019-05-16T07:02:00.466Z,12.92
2019-05-16T07:04:42.571Z,13.60
2019-05-16T07:07:31.422Z,14.38
2019-05-16T07:10:20.569Z,14.02
2019-05-16T07:13:10.361Z,13.89
2019-05-16T07:16:00.697Z,13.72
2019-05-16T07:18:50.817Z,14.52
2019-05-16T07:21:41.177Z,14.22
2019-05-16T07:24:30.517Z,14.39
2019-05-16T07:27:21.913Z,14.61
2019-05-16T07:33:26.671Z,14.97
2019-05-16T07:36:16.008Z,14.78
2019-05-16T07:39:06.291Z,14.50
2019-05-16T07:41:55.143Z,14.59
2019-05-16T07:44:44.042Z,14.27
2019-05-16T07:47:32.896Z,14.53
2019-05-16T07:50:21.735Z,14.30
2019-05-16T07:53:10.774Z,14.66
2019-05-16T07:56:00.164Z,15.25
2019-05-16T07:58:50.829Z,15.72
2019-05-16T08:01:43.382Z,15.61
2019-05-16T08:04:31.476Z,15.12
2019-05-16T08:07:13.757Z,15.42
2019-05-16T08:09:43.324Z,14.54
2019-05-16T08:12:33.041Z,14.38
2019-05-16T08:15:23.198Z,14.40
2019-05-16T08:18:12.066Z,14.79
2019-05-16T08:21:01.570Z,14.93
2019-05-16T08:23:51.469Z,15.25
2019-05-16T08:26:43.041Z,15.37
2019-05-16T08:29:31.724Z,15.56
2019-05-16T08:35:12.118Z,15.60
2019-05-16T08:38:01.279Z,15.32
2019-05-16T08:41:06.146Z,15.50
2019-05-16T08:43:41.542Z,15.36
2019-05-16T08:46:32.410Z,14.65
2019-05-16T08:49:22.285Z,14.28
2019-05-16T08:52:12.401Z,14.07
2019-05-16T08:55:03.531Z,13.82
2019-05-16T08:57:52.925Z,13.90
2019-05-16T09:00:42.440Z,13.84
2019-05-16T09:03:32.268Z,13.72
2019-05-16T09:06:15.219Z,13.91
2019-05-16T09:10:41.403Z,15.76
2019-05-16T09:13:48.177Z,13.77
2019-05-16T09:16:37.276Z,13.75
2019-05-16T09:19:27.799Z,13.42
2019-05-16T09:22:18.219Z,13.90
2019-05-16T09:28:22.598Z,15.48
2019-05-16T09:31:11.487Z,16.43
2019-05-16T09:34:00.352Z,16.15
2019-05-16T09:36:49.237Z,16.85
2019-05-16T09:39:18.886Z,16.85
2019-05-16T09:42:08.312Z,16.95
2019-05-16T09:44:58.162Z,16.42
2019-05-16T09:47:48.497Z,16.03
2019-05-16T09:50:37.976Z,15.85
2019-05-16T09:53:28.202Z,15.87
2019-05-16T09:56:17.065Z,15.45
2019-05-16T09:59:06.915Z,15.60
2019-05-16T10:01:57.171Z,16.12
2019-05-16T10:04:47.471Z,16.63
2019-05-16T10:07:30.933Z,16.70
2019-05-16T10:10:00.434Z,17.91
2019-05-16T10:12:49.263Z,18.34
2019-05-16T10:15:38.159Z,19.40
2019-05-16T10:18:27.736Z,19.01
2019-05-16T10:21:20.490Z,18.74
2019-05-16T10:24:08.241Z,18.49
2019-05-16T10:26:57.270Z,18.99
2019-05-16T10:29:48.489Z,19.89
2019-05-16T10:32:39.731Z,21.16
2019-05-16T10:35:30.160Z,19.75
2019-05-16T10:38:19.534Z,19.31
2019-05-16T10:41:08.356Z,19.25
2019-05-16T10:43:57.240Z,19.99
2019-05-16T10:46:47.974Z,20.21
2019-05-16T10:49:38.773Z,21.54
2019-05-16T10:52:27.281Z,20.78
2019-05-16T10:55:17.738Z,20.46
2019-05-16T10:58:07.533Z,21.07
2019-05-16T11:01:15.614Z,20.38
2019-05-16T11:03:49.190Z,19.60
2019-05-16T11:06:31.732Z,20.65
2019-05-16T11:09:20.577Z,22.01
2019-05-16T11:12:09.433Z,22.61
2019-05-16T11:14:58.300Z,23.77
2019-05-16T11:17:47.112Z,22.84
2019-05-16T11:20:37.402Z,23.50
2019-05-16T11:23:30.855Z,23.07
2019-05-16T11:26:17.077Z,23.27
2019-05-16T11:29:07.446Z,22.82
2019-05-16T11:31:57.392Z,22.27
2019-05-16T11:34:47.952Z,22.92
2019-05-16T11:37:37.872Z,23.08
2019-05-16T11:40:30.198Z,23.08
2019-05-16T11:43:21.734Z,23.57
2019-05-16T11:46:09.410Z,23.20
2019-05-16T11:48:58.264Z,23.70
2019-05-16T11:51:47.428Z,22.39
2019-05-16T11:54:37.645Z,23.42
2019-05-16T11:57:26.474Z,24.51
2019-05-16T12:00:37.241Z,22.64
2019-05-16T12:03:28.237Z,21.43
2019-05-16T12:06:11.352Z,21.17
2019-05-16T12:09:00.173Z,21.92
2019-05-16T12:11:49.031Z,21.92
2019-05-16T12:14:37.888Z,23.57
2019-05-16T12:17:27.991Z,23.00
2019-05-16T12:20:17.523Z,22.54
2019-05-16T12:23:07.971Z,22.78
2019-05-16T12:25:59.948Z,23.92
2019-05-16T12:28:47.557Z,22.99
2019-05-16T12:31:37.352Z,23.90
2019-05-16T12:34:27.087Z,24.14
2019-05-16T12:37:15.915Z,25.15
2019-05-16T12:40:26.837Z,23.49
2019-05-16T12:43:17.967Z,24.43
2019-05-16T12:46:07.527Z,24.61
2019-05-16T12:48:57.702Z,24.04
2019-05-16T12:51:47.920Z,22.59
2019-05-16T12:54:37.088Z,22.08
2019-05-16T12:57:31.125Z,22.09
2019-05-16T13:03:33.033Z,23.05
2019-05-16T13:06:17.104Z,22.34
2019-05-16T13:09:26.537Z,22.00
2019-05-16T13:12:17.496Z,21.52
2019-05-16T13:18:02.309Z,21.13
2019-05-16T13:20:51.214Z,20.20
2019-05-16T13:23:40.026Z,20.66
2019-05-16T13:26:28.866Z,20.83
2019-05-16T13:29:18.230Z,20.66
2019-05-16T13:32:08.333Z,23.06
2019-05-16T13:34:58.961Z,23.06
2019-05-16T13:37:48.008Z,24.61
2019-05-16T13:40:36.882Z,23.05
2019-05-16T13:43:26.995Z,22.45
2019-05-16T13:46:17.223Z,22.94
2019-05-16T13:49:07.366Z,25.17
2019-05-16T13:51:57.554Z,25.49
2019-05-16T13:54:46.413Z,24.02
2019-05-16T13:57:37.384Z,23.23
2019-05-16T14:00:27.901Z,22.10
2019-05-16T14:03:17.922Z,22.35
2019-05-16T14:06:07.441Z,21.61
2019-05-16T14:08:56.787Z,20.63
2019-05-16T14:11:46.979Z,21.16
2019-05-16T14:14:41.971Z,20.17
2019-05-16T14:17:27.534Z,20.65
2019-05-16T14:23:32.360Z,20.18
2019-05-16T14:26:21.200Z,20.39
2019-05-16T14:29:10.032Z,19.75
2019-05-16T14:31:58.856Z,19.67
2019-05-16T14:34:51.321Z,19.44
2019-05-16T14:37:38.457Z,19.21
2019-05-16T14:40:27.790Z,19.75
2019-05-16T14:43:17.795Z,19.60
2019-05-16T14:46:09.375Z,20.00
2019-05-16T14:48:57.434Z,19.85
2019-05-16T14:51:47.736Z,19.89
2019-05-16T14:54:37.707Z,19.40
2019-05-16T14:57:27.543Z,19.05
2019-05-16T15:03:31.740Z,17.96
2019-05-16T15:06:20.593Z,17.83
2019-05-16T15:09:03.714Z,17.28
2019-05-16T15:11:52.568Z,17.36
2019-05-16T15:14:41.390Z,17.23
2019-05-16T15:17:30.011Z,16.61
2019-05-16T15:20:19.035Z,16.51
2019-05-16T15:23:07.965Z,16.37
2019-05-16T15:25:56.811Z,16.38
2019-05-16T15:28:47.959Z,16.09
2019-05-16T15:31:39.435Z,16.12
2019-05-16T15:34:29.942Z,16.40
2019-05-16T15:37:17.560Z,16.34
2019-05-16T15:40:27.295Z,16.61
2019-05-16T15:43:17.997Z,16.07
2019-05-16T15:49:37.578Z,16.27
2019-05-16T15:55:54.225Z,15.87
2019-05-16T15:58:43.091Z,15.54
2019-05-16T16:01:31.942Z,16.21
2019-05-16T16:04:22.754Z,16.05
2019-05-16T16:07:07.402Z,16.00
2019-05-16T16:09:57.524Z,15.91
2019-05-16T16:12:47.749Z,15.91
2019-05-16T16:18:51.588Z,15.42
2019-05-16T16:21:40.498Z,15.57
2019-05-16T16:24:29.409Z,15.74
2019-05-16T16:27:18.237Z,15.71
2019-05-16T16:33:27.316Z,15.78
2019-05-16T16:36:13.489Z,15.77
2019-05-16T16:39:02.360Z,15.51
2019-05-16T16:41:51.212Z,15.30
2019-05-16T16:44:40.069Z,15.12
2019-05-16T16:47:29.024Z,14.51
2019-05-16T16:50:18.013Z,14.63
2019-05-16T16:53:07.268Z,14.54
2019-05-16T16:55:57.501Z,14.52
2019-05-16T16:58:46.713Z,14.43
2019-05-16T17:01:37.523Z,14.68
2019-05-16T17:04:27.451Z,14.74
2019-05-16T17:07:09.093Z,14.72
2019-05-16T17:09:50.616Z,14.68
2019-05-16T17:12:42.328Z,14.88
2019-05-16T17:15:30.222Z,14.93
2019-05-16T17:18:19.056Z,15.10
2019-05-16T17:21:08.228Z,15.02
2019-05-16T17:24:01.022Z,15.37
2019-05-16T17:26:49.932Z,15.12
2019-05-16T17:29:38.781Z,14.90
2019-05-16T17:32:27.930Z,14.82
2019-05-16T17:38:31.762Z,14.79
2019-05-16T17:41:20.421Z,14.49
2019-05-16T17:44:09.320Z,14.55
2019-05-16T17:46:58.190Z,14.68
2019-05-16T17:49:47.328Z,14.52
2019-05-16T17:52:36.896Z,14.55
2019-05-16T17:55:27.054Z,14.23
2019-05-16T17:58:16.500Z,14.15
2019-05-16T18:04:17.234Z,14.03
2019-05-16T18:07:07.345Z,13.97
2019-05-16T18:09:50.129Z,14.14
2019-05-16T18:12:38.977Z,13.94
2019-05-16T18:15:27.917Z,13.80
2019-05-16T18:18:17.666Z,13.92
2019-05-16T18:21:07.485Z,13.74
2019-05-16T18:23:56.293Z,13.77
2019-05-16T18:26:26.844Z,13.59
2019-05-16T18:29:16.488Z,13.72
2019-05-16T18:32:06.947Z,13.57
2019-05-16T18:34:56.410Z,13.53
2019-05-16T18:37:46.609Z,13.51
2019-05-16T18:40:36.778Z,13.56
2019-05-16T18:43:27.089Z,13.22
2019-05-16T18:46:16.670Z,13.09
2019-05-16T18:49:07.248Z,12.92
2019-05-16T18:51:57.040Z,13.05
2019-05-16T18:54:46.880Z,12.96
2019-05-16T18:57:37.720Z,12.80
2019-05-16T19:00:26.794Z,12.79
2019-05-16T19:03:17.205Z,12.71
2019-05-16T19:06:07.755Z,12.57
2019-05-16T19:08:50.021Z,12.42
2019-05-16T19:11:38.894Z,12.23
2019-05-16T19:14:27.798Z,12.30
2019-05-16T19:17:22.197Z,12.24
2019-05-16T19:23:22.403Z,12.11
2019-05-16T19:26:11.346Z,12.04
2019-05-16T19:29:00.259Z,12.16
2019-05-16T19:31:50.614Z,12.05
2019-05-16T19:34:39.683Z,12.14
2019-05-16T19:37:28.526Z,12.04
2019-05-16T19:40:40.508Z,12.12
2019-05-16T19:43:28.849Z,12.12
2019-05-16T19:46:17.767Z,12.08
2019-05-16T19:49:06.642Z,12.10
2019-05-16T19:51:56.598Z,12.09
2019-05-16T19:54:47.112Z,12.19
2019-05-16T19:57:37.386Z,12.02
2019-05-16T20:00:27.359Z,11.98
2019-05-16T20:03:16.728Z,12.07
2019-05-16T20:06:07.567Z,11.94
2019-05-16T20:08:50.044Z,11.92
2019-05-16T20:11:38.923Z,11.71
2019-05-16T20:14:27.869Z,11.71
2019-05-16T20:17:19.210Z,11.36
2019-05-16T20:23:22.630Z,10.86
2019-05-16T20:26:11.551Z,10.38
2019-05-16T20:29:00.385Z,10.23
2019-05-16T20:31:49.301Z,10.10
2019-05-16T20:34:38.128Z,9.97
2019-05-16T20:37:26.990Z,9.97
2019-05-16T20:40:17.290Z,9.88
2019-05-16T20:43:07.732Z,9.81
2019-05-16T20:45:58.839Z,9.83
2019-05-16T20:48:47.766Z,9.86
2019-05-16T20:51:37.599Z,9.93
2019-05-16T20:54:27.182Z,9.96
2019-05-16T20:57:17.261Z,10.09
2019-05-16T21:00:26.831Z,9.93
2019-05-16T21:03:16.740Z,9.88
2019-05-16T21:06:08.464Z,9.99
2019-05-16T21:08:57.510Z,10.13
2019-05-16T21:11:49.952Z,10.10
2019-05-16T21:14:37.480Z,9.91
2019-05-16T21:17:33.586Z,9.92
2019-05-16T21:20:22.491Z,9.77
2019-05-16T21:23:11.339Z,9.81
2019-05-16T21:26:00.207Z,9.81
2019-05-16T21:28:49.040Z,9.85
2019-05-16T21:31:37.872Z,9.80
2019-05-16T21:34:27.268Z,9.77
2019-05-16T21:37:20.199Z,9.77
2019-05-16T21:40:08.306Z,9.77
2019-05-16T21:42:58.832Z,9.77
2019-05-16T21:45:47.673Z,9.77
2019-05-16T21:48:36.994Z,9.77
2019-05-16T21:51:27.094Z,9.86
2019-05-16T21:54:15.962Z,9.88
2019-05-16T21:57:04.843Z,9.87
2019-05-16T21:59:53.770Z,9.85
2019-05-16T22:02:42.585Z,9.90
2019-05-16T22:05:31.493Z,9.98
2019-05-16T22:08:20.419Z,9.90
2019-05-16T22:11:02.707Z,9.89
2019-05-16T22:13:51.525Z,9.87
2019-05-16T22:19:36.440Z,9.83
2019-05-16T22:22:27.577Z,9.77
2019-05-16T22:25:16.729Z,9.78
2019-05-16T22:28:07.352Z,9.80
2019-05-16T22:30:58.466Z,9.80
2019-05-16T22:33:48.288Z,9.81
2019-05-16T22:36:37.277Z,9.84
2019-05-16T22:42:37.503Z,9.83
2019-05-16T22:45:27.121Z,9.90
2019-05-16T22:48:17.399Z,10.00
2019-05-16T22:51:07.443Z,9.89
2019-05-16T22:53:58.499Z,9.85
2019-05-16T22:56:46.927Z,9.82
2019-05-16T22:59:35.776Z,9.81
2019-05-16T23:02:24.602Z,9.74
2019-05-16T23:05:13.464Z,9.74
2019-05-16T23:08:06.098Z,9.75
2019-05-16T23:10:46.275Z,9.75
2019-05-16T23:13:35.104Z,9.71
2019-05-16T23:16:26.520Z,9.78
2019-05-16T23:19:14.523Z,9.80
2019-05-16T23:22:03.445Z,9.70
2019-05-16T23:25:11.331Z,9.64
2019-05-16T23:28:00.268Z,9.63
2019-05-16T23:30:49.119Z,9.79
2019-05-16T23:33:37.964Z,9.83
2019-05-16T23:36:26.813Z,9.77
2019-05-16T23:39:15.640Z,9.73
2019-05-16T23:42:06.362Z,9.74
2019-05-16T23:44:56.735Z,9.74
2019-05-16T23:47:47.131Z,9.63
2019-05-16T23:50:36.718Z,9.76
2019-05-16T23:53:26.901Z,9.65
2019-05-16T23:56:16.688Z,9.56
2019-05-16T23:59:06.716Z,9.60
